Taha, China
Current Conditions -  °F | °C
As of 4:00 PM on Saturday 25 Oct 2014 (Local Time) from ZYHB Reporting Station
Smoke Smoke  
Wind Chill: 50°   Ceiling: Unl
Heat Index: 50°   Visibility: 3mi
Dew Point: 37°   Wind: 2mph
Humidity: 62%   Direction: NA
Pressure: 29.83"   Gusts: NA
Location:  47.56°N, 124.22°E
Report Text: ZYHB 250800Z VRB01MPS 5000 FU NSC 10/03 Q1010 BECMG TL09302500
Loading
Personal Weather Stations






























Interactive Weather Map
Tropical Storm Tracking
New forecast layout! Learn more

10-Day Weather Forecast

Advertisements
Track Severe Weather on mobile